createdAt,value
2016-12-23T00:00:12.050Z,26.36
2016-12-23T00:00:39.881Z,26.4
2016-12-23T00:01:07.648Z,26.4
2016-12-23T00:01:35.485Z,26.37
2016-12-23T00:02:03.302Z,26.34
2016-12-23T00:02:31.049Z,26.29
2016-12-23T00:02:58.863Z,26.37
2016-12-23T00:03:26.666Z,26.33
2016-12-23T00:03:54.445Z,26.4
2016-12-23T00:04:22.296Z,26.36
2016-12-23T00:04:50.058Z,26.37
2016-12-23T00:05:17.831Z,26.29
2016-12-23T00:05:45.740Z,26.36
2016-12-23T00:06:13.553Z,26.36
2016-12-23T00:06:41.402Z,26.36
2016-12-23T00:07:09.321Z,26.43
2016-12-23T00:07:37.103Z,26.31
2016-12-23T00:08:05.052Z,26.38
2016-12-23T00:08:32.900Z,26.37
2016-12-23T00:09:00.704Z,26.43
2016-12-23T00:09:28.492Z,26.37
2016-12-23T00:09:56.296Z,26.4
2016-12-23T00:10:24.041Z,26.38
2016-12-23T00:10:51.877Z,26.29
2016-12-23T00:11:19.758Z,26.31
2016-12-23T00:11:47.558Z,26.29
2016-12-23T00:12:15.299Z,26.29
2016-12-23T00:12:43.109Z,26.23
2016-12-23T00:13:10.894Z,26.36
2016-12-23T00:13:38.603Z,26.26
2016-12-23T00:14:06.403Z,26.26
2016-12-23T00:14:34.180Z,26.16
2016-12-23T00:15:01.947Z,26.16
2016-12-23T00:15:29.727Z,26.13
2016-12-23T00:15:57.647Z,26.1
2016-12-23T00:16:25.432Z,26.1
2016-12-23T00:16:53.231Z,26.03
2016-12-23T00:17:21.061Z,26.05
2016-12-23T00:17:48.820Z,26.02
2016-12-23T00:18:16.614Z,26.06
2016-12-23T00:18:44.386Z,26.05
2016-12-23T00:19:12.153Z,26.02
2016-12-23T00:19:39.930Z,26.09
2016-12-23T00:20:07.715Z,26.06
2016-12-23T00:20:35.479Z,26.05
2016-12-23T00:21:03.264Z,26.06
2016-12-23T00:21:31.006Z,26.03
2016-12-23T00:21:58.785Z,26.09
2016-12-23T00:22:26.637Z,26.05
2016-12-23T00:22:54.388Z,26.1
2016-12-23T00:23:22.186Z,26
2016-12-23T00:23:49.950Z,26
2016-12-23T00:24:17.775Z,26.06
2016-12-23T00:24:45.581Z,26.06
2016-12-23T00:25:13.398Z,26.02
2016-12-23T00:25:41.294Z,26.1
2016-12-23T00:26:09.050Z,26.09
2016-12-23T00:26:36.807Z,26.05
2016-12-23T00:27:04.650Z,26.07
2016-12-23T00:27:32.392Z,26.16
2016-12-23T00:28:00.166Z,26.09
2016-12-23T00:28:28.045Z,26.18
2016-12-23T00:28:55.956Z,26.13
2016-12-23T00:29:23.783Z,26.05
2016-12-23T00:29:51.544Z,26.15
2016-12-23T00:30:19.316Z,26.16
2016-12-23T00:30:47.104Z,26.16
2016-12-23T00:31:14.844Z,26.13
2016-12-23T00:31:42.619Z,26.18
2016-12-23T00:32:10.410Z,26.13
2016-12-23T00:32:38.203Z,26.18
2016-12-23T00:33:05.998Z,26.15
2016-12-23T00:33:33.796Z,26.19
2016-12-23T00:34:01.536Z,26.18
2016-12-23T00:34:29.470Z,26.13
2016-12-23T00:34:57.290Z,26.09
2016-12-23T00:35:25.122Z,26.21
2016-12-23T00:35:52.892Z,26.1
2016-12-23T00:36:20.782Z,26.13
2016-12-23T00:36:48.563Z,26.21
2016-12-23T00:37:16.343Z,26.15
2016-12-23T00:37:44.105Z,26.13
2016-12-23T00:38:11.911Z,26.16
2016-12-23T00:38:39.679Z,26.22
2016-12-23T00:39:07.449Z,26.03
2016-12-23T00:39:35.248Z,26.15
2016-12-23T00:40:03.055Z,26.05
2016-12-23T00:40:30.836Z,26.05
2016-12-23T00:40:58.654Z,26.06
2016-12-23T00:41:26.440Z,26.18
2016-12-23T00:41:54.211Z,26.1
2016-12-23T00:42:21.985Z,26.13
2016-12-23T00:42:49.770Z,26.07
2016-12-23T00:43:17.663Z,26.15
2016-12-23T00:43:45.433Z,26.16
2016-12-23T00:44:13.268Z,26.07
2016-12-23T00:44:41.035Z,26.13
2016-12-23T00:45:08.802Z,26.18
2016-12-23T00:45:36.561Z,26.07
2016-12-23T00:46:04.382Z,26.18
2016-12-23T00:46:32.179Z,26.1
2016-12-23T00:46:59.973Z,26.09
2016-12-23T00:47:27.741Z,26.07
2016-12-23T00:47:55.501Z,26.07
2016-12-23T00:48:23.310Z,26.15
2016-12-23T00:48:51.086Z,26.13
2016-12-23T00:49:18.910Z,26.1
2016-12-23T00:49:46.665Z,26.15
2016-12-23T00:50:14.447Z,26.21
2016-12-23T00:50:42.250Z,26.13
2016-12-23T00:51:10.066Z,26.18
2016-12-23T00:51:37.905Z,26.13
2016-12-23T00:52:05.652Z,26.18
2016-12-23T00:52:33.463Z,26.19
2016-12-23T00:53:01.256Z,26.1
2016-12-23T00:53:29.043Z,26.16
2016-12-23T00:53:56.847Z,26.07
2016-12-23T00:54:24.752Z,26.16
2016-12-23T00:54:52.493Z,26.05
2016-12-23T00:55:20.297Z,26.05
2016-12-23T00:55:48.121Z,26.1
2016-12-23T00:56:15.988Z,26.1
2016-12-23T00:56:43.764Z,26.18
2016-12-23T00:57:11.509Z,26.18
2016-12-23T00:57:39.260Z,26.16
2016-12-23T00:58:07.031Z,26.15
2016-12-23T00:58:34.793Z,26.18
2016-12-23T00:59:02.571Z,26.23
2016-12-23T00:59:30.350Z,26.1
2016-12-23T00:59:58.153Z,26.16
2016-12-23T01:00:25.935Z,26.16
2016-12-23T01:00:53.734Z,26.21
2016-12-23T01:01:21.526Z,26.02
2016-12-23T01:01:49.330Z,26.06
2016-12-23T01:02:17.111Z,26.07
2016-12-23T01:02:45.024Z,26.06
2016-12-23T01:03:12.763Z,26.06
2016-12-23T01:03:40.651Z,26.09
2016-12-23T01:04:08.409Z,26.1
2016-12-23T01:04:36.239Z,26.02
2016-12-23T01:05:04.127Z,26.16
2016-12-23T01:05:31.870Z,26.16
2016-12-23T01:05:59.607Z,26.18
2016-12-23T01:06:27.506Z,26.19
2016-12-23T01:06:55.299Z,26.19
2016-12-23T01:07:23.045Z,26.18
2016-12-23T01:07:50.824Z,26.1
2016-12-23T01:08:18.606Z,26.16
2016-12-23T01:08:46.369Z,26.07
2016-12-23T01:09:14.122Z,26.05
2016-12-23T01:09:41.901Z,26.07
2016-12-23T01:10:09.665Z,26.06
2016-12-23T01:10:37.476Z,26.02
2016-12-23T01:11:05.265Z,26.06
2016-12-23T01:11:33.069Z,26.03
2016-12-23T01:12:00.849Z,26.07
2016-12-23T01:12:28.744Z,26.13
2016-12-23T01:12:56.501Z,26.18
2016-12-23T01:13:24.281Z,26.1
2016-12-23T01:13:52.059Z,26.18
2016-12-23T01:14:19.956Z,26.22
2016-12-23T01:14:47.717Z,26.1
2016-12-23T01:15:15.641Z,26.15
2016-12-23T01:15:43.491Z,26.19
2016-12-23T01:16:11.249Z,26.18
2016-12-23T01:16:39.031Z,26.16
2016-12-23T01:17:06.815Z,26.13
2016-12-23T01:17:34.598Z,26.13
2016-12-23T01:18:02.417Z,26
2016-12-23T01:18:30.177Z,26.1
2016-12-23T01:18:57.969Z,26.09
2016-12-23T01:19:25.767Z,26.15
2016-12-23T01:19:53.524Z,26.03
2016-12-23T01:20:21.322Z,26.07
2016-12-23T01:20:49.134Z,26.03
2016-12-23T01:21:17.063Z,26.05
2016-12-23T01:21:44.832Z,26
2016-12-23T01:22:12.600Z,26.05
2016-12-23T01:22:40.449Z,26.03
2016-12-23T01:23:08.257Z,26.07
2016-12-23T01:23:36.039Z,26.15
2016-12-23T01:24:03.811Z,26.16
2016-12-23T01:24:31.597Z,26.16
2016-12-23T01:24:59.377Z,26.15
2016-12-23T01:25:27.139Z,26.13
2016-12-23T01:25:54.950Z,26.1
2016-12-23T01:26:22.715Z,26.15
2016-12-23T01:26:50.512Z,26.07
2016-12-23T01:27:18.279Z,26.16
2016-12-23T01:27:46.125Z,26.16
2016-12-23T01:28:13.992Z,26.15
2016-12-23T01:28:41.809Z,26.15
2016-12-23T01:29:09.638Z,26.18
2016-12-23T01:29:37.419Z,26.16
2016-12-23T01:30:05.219Z,26.13
2016-12-23T01:30:33.014Z,26.06
2016-12-23T01:31:00.801Z,26.1
2016-12-23T01:31:28.572Z,26.07
2016-12-23T01:31:56.423Z,26.05
2016-12-23T01:32:24.392Z,26.09
2016-12-23T01:32:52.165Z,26.16
2016-12-23T01:33:19.973Z,26.16
2016-12-23T01:33:47.759Z,26.16
2016-12-23T01:34:15.572Z,26.13
2016-12-23T01:34:43.399Z,26.16
2016-12-23T01:35:11.184Z,26.18
2016-12-23T01:35:38.972Z,26.18
2016-12-23T01:36:06.783Z,26.09
2016-12-23T01:36:34.575Z,26.13
2016-12-23T01:37:02.329Z,26.13
2016-12-23T01:37:30.179Z,26.13
2016-12-23T01:37:57.973Z,26.09
2016-12-23T01:38:25.775Z,26.15
2016-12-23T01:38:53.676Z,26.07
2016-12-23T01:39:21.448Z,26.07
2016-12-23T01:39:49.367Z,26.05
2016-12-23T01:40:17.163Z,26.07
2016-12-23T01:40:44.907Z,26.13
2016-12-23T01:41:12.679Z,26.15
2016-12-23T01:41:40.468Z,26.1
2016-12-23T01:42:08.284Z,26.1
2016-12-23T01:42:36.149Z,26.15
2016-12-23T01:43:03.926Z,26.07
2016-12-23T01:43:31.699Z,26.02
2016-12-23T01:43:59.458Z,26.06
2016-12-23T01:44:27.217Z,26.03
2016-12-23T01:44:54.990Z,26.05
2016-12-23T01:45:22.759Z,26.05
2016-12-23T01:45:50.578Z,26.05
2016-12-23T01:46:18.309Z,26.02
2016-12-23T01:46:46.102Z,25.93
2016-12-23T01:47:13.986Z,25.99
2016-12-23T01:47:41.758Z,26.02
2016-12-23T01:48:09.538Z,26
2016-12-23T01:48:37.329Z,25.9
2016-12-23T01:49:05.165Z,25.9
2016-12-23T01:49:32.978Z,25.87
2016-12-23T01:50:00.750Z,25.9
2016-12-23T01:50:28.546Z,25.88
2016-12-23T01:50:56.327Z,25.95
2016-12-23T01:51:24.126Z,25.9
2016-12-23T01:51:51.990Z,25.9
2016-12-23T01:52:19.770Z,25.81
2016-12-23T01:52:47.544Z,25.78
2016-12-23T01:53:15.403Z,25.78
2016-12-23T01:53:43.160Z,25.8
2016-12-23T01:54:10.905Z,25.81
2016-12-23T01:54:38.707Z,25.75
2016-12-23T01:55:06.470Z,25.8
2016-12-23T01:55:34.319Z,25.78
2016-12-23T01:56:02.091Z,25.75
2016-12-23T01:56:29.853Z,25.78
2016-12-23T01:56:57.635Z,25.81
2016-12-23T01:57:25.408Z,25.8
2016-12-23T01:57:53.189Z,25.77
2016-12-23T01:58:20.952Z,25.85
2016-12-23T01:58:48.729Z,25.78
2016-12-23T01:59:16.514Z,25.83
2016-12-23T01:59:44.280Z,25.81
2016-12-23T02:00:12.095Z,25.73
2016-12-23T02:00:39.877Z,25.75
2016-12-23T02:01:07.743Z,25.7
2016-12-23T02:01:35.590Z,25.85
2016-12-23T02:02:03.366Z,25.77
2016-12-23T02:02:31.128Z,25.77
2016-12-23T02:02:58.973Z,25.77
2016-12-23T02:03:26.733Z,25.77
2016-12-23T02:03:54.602Z,25.8
2016-12-23T02:04:22.399Z,25.75
2016-12-23T02:04:50.180Z,25.72
2016-12-23T02:05:17.953Z,25.78
2016-12-23T02:05:45.686Z,25.78
2016-12-23T02:06:13.469Z,25.83
2016-12-23T02:06:41.213Z,25.78
2016-12-23T02:07:08.975Z,25.75
2016-12-23T02:07:36.813Z,25.75
2016-12-23T02:08:04.610Z,25.75
2016-12-23T02:08:32.404Z,25.75
2016-12-23T02:09:00.153Z,25.81
2016-12-23T02:09:27.932Z,25.83
2016-12-23T02:09:55.724Z,25.8
2016-12-23T02:10:23.540Z,25.83
2016-12-23T02:10:51.305Z,25.77
2016-12-23T02:11:19.096Z,25.8
2016-12-23T02:11:46.899Z,25.8
2016-12-23T02:12:14.814Z,25.84
2016-12-23T02:12:42.616Z,25.8
2016-12-23T02:13:10.518Z,25.8
2016-12-23T02:13:38.289Z,25.78
2016-12-23T02:14:06.206Z,25.77
2016-12-23T02:14:34.093Z,25.68
2016-12-23T02:15:01.834Z,25.77
2016-12-23T02:15:29.622Z,25.83
2016-12-23T02:15:57.402Z,25.66
2016-12-23T02:16:25.189Z,25.8
2016-12-23T02:16:52.940Z,25.8
2016-12-23T02:17:20.715Z,25.81
2016-12-23T02:17:48.492Z,25.73
2016-12-23T02:18:16.279Z,25.75
2016-12-23T02:18:44.068Z,25.73
2016-12-23T02:19:11.829Z,25.73
2016-12-23T02:19:39.630Z,25.8
2016-12-23T02:20:07.557Z,25.72
2016-12-23T02:20:35.328Z,25.77
2016-12-23T02:21:03.096Z,25.62
2016-12-23T02:21:30.860Z,25.55
2016-12-23T02:21:58.666Z,25.62
2016-12-23T02:22:26.436Z,25.65
2016-12-23T02:22:54.203Z,25.59
2016-12-23T02:23:21.963Z,25.62
2016-12-23T02:23:49.739Z,25.7
2016-12-23T02:24:17.478Z,25.59
2016-12-23T02:24:45.287Z,25.51
2016-12-23T02:25:13.083Z,25.63
2016-12-23T02:25:40.934Z,25.47
2016-12-23T02:26:08.783Z,25.59
2016-12-23T02:26:36.552Z,25.47
2016-12-23T02:27:04.322Z,25.53
2016-12-23T02:27:32.080Z,25.53
2016-12-23T02:27:59.842Z,25.63
2016-12-23T02:28:27.650Z,25.51
2016-12-23T02:28:55.431Z,25.59
2016-12-23T02:29:23.238Z,25.48
2016-12-23T02:29:51.040Z,25.55
2016-12-23T02:30:18.849Z,25.5
2016-12-23T02:30:46.698Z,25.48
2016-12-23T02:31:14.496Z,25.5
2016-12-23T02:31:42.254Z,25.43
2016-12-23T02:32:10.061Z,25.41
2016-12-23T02:32:37.836Z,25.46
2016-12-23T02:33:05.586Z,25.47
2016-12-23T02:33:33.329Z,25.55
2016-12-23T02:34:01.115Z,25.51
2016-12-23T02:34:28.900Z,25.54
2016-12-23T02:34:56.649Z,25.51
2016-12-23T02:35:24.408Z,25.5
2016-12-23T02:35:52.177Z,25.5
2016-12-23T02:36:20.033Z,25.48
2016-12-23T02:36:47.789Z,25.51
2016-12-23T02:37:15.579Z,25.51
2016-12-23T02:37:43.384Z,25.53
2016-12-23T02:38:11.173Z,25.53
2016-12-23T02:38:38.994Z,25.54
2016-12-23T02:39:06.779Z,25.51
2016-12-23T02:39:34.578Z,25.53
2016-12-23T02:40:02.354Z,25.54
2016-12-23T02:40:30.096Z,25.51
2016-12-23T02:40:57.910Z,25.47
2016-12-23T02:41:25.665Z,25.5
2016-12-23T02:41:53.455Z,25.53
2016-12-23T02:42:21.249Z,25.51
2016-12-23T02:42:48.997Z,25.5
2016-12-23T02:43:16.722Z,25.55
2016-12-23T02:43:44.517Z,25.54
2016-12-23T02:44:12.266Z,25.47
2016-12-23T02:44:40.073Z,25.4
2016-12-23T02:45:07.872Z,25.43
2016-12-23T02:45:35.674Z,25.46
2016-12-23T02:46:03.432Z,25.43
2016-12-23T02:46:31.287Z,25.47
2016-12-23T02:46:59.052Z,25.5
2016-12-23T02:47:26.806Z,25.5
2016-12-23T02:47:54.606Z,25.54
2016-12-23T02:48:22.347Z,25.44
2016-12-23T02:48:50.120Z,25.44
2016-12-23T02:49:17.878Z,25.44
2016-12-23T02:49:45.638Z,25.44
2016-12-23T02:50:13.406Z,25.4
2016-12-23T02:50:41.283Z,25.38
2016-12-23T02:51:09.064Z,25.33
2016-12-23T02:51:36.953Z,25.28
2016-12-23T02:52:04.722Z,25.33
2016-12-23T02:52:32.568Z,25.28
2016-12-23T02:53:00.359Z,25.33
2016-12-23T02:53:28.140Z,25.35
2016-12-23T02:53:55.982Z,25.32
2016-12-23T02:54:23.820Z,25.32
2016-12-23T02:54:51.641Z,25.28
2016-12-23T02:55:19.426Z,25.29
2016-12-23T02:55:47.255Z,25.17
2016-12-23T02:56:15.063Z,25.13
2016-12-23T02:56:42.825Z,25.16
2016-12-23T02:57:10.618Z,25.18
2016-12-23T02:57:38.514Z,25.13
2016-12-23T02:58:06.285Z,25.26
2016-12-23T02:58:34.038Z,25.14
2016-12-23T02:59:01.831Z,25.14
2016-12-23T02:59:29.647Z,25.13
2016-12-23T02:59:57.403Z,25.16
2016-12-23T03:00:25.234Z,25.14
2016-12-23T03:00:53.064Z,25.08
2016-12-23T03:01:20.821Z,25.13
2016-12-23T03:01:48.609Z,25.1
2016-12-23T03:02:16.395Z,25.08
2016-12-23T03:02:44.179Z,25.03
2016-12-23T03:03:11.965Z,25.11
2016-12-23T03:03:39.725Z,25.11
2016-12-23T03:04:07.484Z,25.11
2016-12-23T03:04:35.250Z,25.11
2016-12-23T03:05:03.143Z,25.16
2016-12-23T03:05:30.915Z,25.26
2016-12-23T03:05:58.681Z,25.1
2016-12-23T03:06:26.463Z,25.14
2016-12-23T03:06:54.263Z,25.11
2016-12-23T03:07:22.138Z,25.1
2016-12-23T03:07:49.876Z,25.11
2016-12-23T03:08:17.716Z,25.11
2016-12-23T03:08:45.467Z,25.11
2016-12-23T03:09:13.298Z,25.17
2016-12-23T03:09:41.098Z,25.17
2016-12-23T03:10:08.953Z,25.17
2016-12-23T03:10:36.727Z,25.17
2016-12-23T03:11:04.495Z,25.1
2016-12-23T03:11:32.245Z,25.17
2016-12-23T03:12:00.046Z,25.14
2016-12-23T03:12:27.803Z,25.14
2016-12-23T03:12:55.633Z,25.17
2016-12-23T03:13:23.442Z,25.13
2016-12-23T03:13:51.235Z,25.13
2016-12-23T03:14:19.078Z,25.17
2016-12-23T03:14:46.861Z,25.13
2016-12-23T03:15:14.634Z,25.1
2016-12-23T03:15:42.428Z,25.16
2016-12-23T03:16:10.255Z,25.11
2016-12-23T03:16:38.051Z,25.16
2016-12-23T03:17:05.884Z,25.21
2016-12-23T03:17:33.655Z,25.13
2016-12-23T03:18:01.425Z,25.13
2016-12-23T03:18:29.323Z,25.14
2016-12-23T03:18:57.133Z,25.14
2016-12-23T03:19:24.926Z,25.13
2016-12-23T03:19:52.744Z,25.13
2016-12-23T03:20:20.544Z,24.92
2016-12-23T03:20:48.316Z,25.04
2016-12-23T03:21:16.163Z,24.96
2016-12-23T03:21:43.963Z,24.89
2016-12-23T03:22:11.768Z,24.91
2016-12-23T03:22:39.562Z,24.89
2016-12-23T03:23:07.341Z,25.01
2016-12-23T03:23:35.192Z,24.86
2016-12-23T03:24:02.977Z,24.95
2016-12-23T03:24:30.755Z,24.96
2016-12-23T03:24:58.511Z,24.89
2016-12-23T03:25:26.322Z,24.92
2016-12-23T03:25:54.088Z,25.06
2016-12-23T03:26:21.883Z,24.89
2016-12-23T03:26:49.677Z,25.06
2016-12-23T03:27:17.504Z,25.06
2016-12-23T03:27:45.280Z,24.98
2016-12-23T03:28:13.080Z,25.03
2016-12-23T03:28:40.905Z,24.89
2016-12-23T03:29:08.666Z,24.95
2016-12-23T03:29:36.418Z,24.89
2016-12-23T03:30:04.163Z,24.99
2016-12-23T03:30:32.000Z,24.88
2016-12-23T03:30:59.756Z,24.89
2016-12-23T03:31:27.540Z,24.93
2016-12-23T03:31:55.295Z,24.89
2016-12-23T03:32:23.080Z,24.96
2016-12-23T03:32:50.897Z,24.88
2016-12-23T03:33:18.684Z,24.96
2016-12-23T03:33:46.482Z,24.89
2016-12-23T03:34:14.265Z,24.95
2016-12-23T03:34:42.018Z,24.86
2016-12-23T03:35:09.816Z,24.86
2016-12-23T03:35:37.618Z,24.86
2016-12-23T03:36:05.390Z,24.91
2016-12-23T03:36:33.161Z,24.89
2016-12-23T03:37:00.976Z,24.99
2016-12-23T03:37:28.784Z,24.93
2016-12-23T03:37:56.503Z,24.95
2016-12-23T03:38:24.262Z,25.01
2016-12-23T03:38:52.042Z,24.99
2016-12-23T03:39:19.856Z,25.08
2016-12-23T03:39:47.652Z,25.04
2016-12-23T03:40:15.457Z,24.96
2016-12-23T03:40:43.291Z,24.92
2016-12-23T03:41:11.107Z,24.93
2016-12-23T03:41:38.918Z,24.98
2016-12-23T03:42:06.664Z,24.91
2016-12-23T03:42:34.424Z,24.96
2016-12-23T03:43:02.221Z,24.92
2016-12-23T03:43:29.962Z,24.88
2016-12-23T03:43:57.767Z,24.74
2016-12-23T03:44:25.579Z,24.77
2016-12-23T03:44:53.385Z,24.86
2016-12-23T03:45:21.168Z,24.8
2016-12-23T03:45:48.895Z,24.84
2016-12-23T03:46:16.747Z,24.85
2016-12-23T03:46:44.547Z,24.86
2016-12-23T03:47:12.330Z,24.89
2016-12-23T03:47:40.137Z,24.98
2016-12-23T03:48:07.944Z,24.92
2016-12-23T03:48:35.786Z,24.93
2016-12-23T03:49:03.576Z,24.99
2016-12-23T03:49:31.391Z,24.89
2016-12-23T03:49:59.173Z,24.96
2016-12-23T03:50:27.073Z,24.93
2016-12-23T03:50:54.856Z,24.95
2016-12-23T03:51:22.611Z,24.91
2016-12-23T03:51:50.423Z,24.89
2016-12-23T03:52:18.330Z,24.85
2016-12-23T03:52:46.116Z,24.91
2016-12-23T03:53:13.961Z,24.91
2016-12-23T03:53:41.719Z,24.93
2016-12-23T03:54:09.646Z,24.95
2016-12-23T03:54:37.398Z,24.86
2016-12-23T03:55:05.211Z,24.92
2016-12-23T03:55:32.950Z,24.89
2016-12-23T03:56:00.859Z,24.88
2016-12-23T03:56:28.715Z,24.96
2016-12-23T03:56:56.494Z,24.88
2016-12-23T03:57:24.335Z,24.85
2016-12-23T03:57:52.106Z,24.89
2016-12-23T03:58:19.893Z,24.95
2016-12-23T03:58:47.656Z,24.86
2016-12-23T03:59:15.540Z,24.86
2016-12-23T03:59:43.298Z,24.77
2016-12-23T04:00:11.059Z,24.78
2016-12-23T04:00:38.816Z,24.77
2016-12-23T04:01:06.628Z,24.76
2016-12-23T04:01:34.393Z,24.68
2016-12-23T04:02:02.278Z,24.74
2016-12-23T04:02:30.095Z,24.77
2016-12-23T04:02:57.857Z,24.76
2016-12-23T04:03:25.600Z,24.74
2016-12-23T04:03:53.379Z,24.81
2016-12-23T04:04:21.136Z,24.85
2016-12-23T04:04:48.951Z,24.78
2016-12-23T04:05:16.751Z,24.7
2016-12-23T04:05:44.490Z,24.74
2016-12-23T04:06:12.260Z,24.85
2016-12-23T04:06:40.021Z,24.76
2016-12-23T04:07:07.845Z,24.78
2016-12-23T04:07:35.599Z,24.85
2016-12-23T04:08:03.416Z,24.88
2016-12-23T04:08:31.333Z,24.88
2016-12-23T04:08:59.119Z,24.81
2016-12-23T04:09:26.896Z,24.76
2016-12-23T04:09:54.639Z,24.84
2016-12-23T04:10:22.442Z,24.81
2016-12-23T04:10:50.340Z,24.85
2016-12-23T04:11:18.256Z,24.8
2016-12-23T04:11:46.025Z,24.81
2016-12-23T04:12:13.867Z,24.86
2016-12-23T04:12:41.656Z,24.89
2016-12-23T04:13:09.445Z,24.88
2016-12-23T04:13:37.239Z,24.85
2016-12-23T04:14:05.021Z,24.86
2016-12-23T04:14:32.806Z,24.78
2016-12-23T04:15:00.543Z,24.8
2016-12-23T04:15:28.326Z,24.74
2016-12-23T04:15:56.219Z,24.86
2016-12-23T04:16:23.979Z,24.84
2016-12-23T04:16:51.781Z,24.88
2016-12-23T04:17:19.556Z,24.77
2016-12-23T04:17:47.309Z,24.86
2016-12-23T04:18:15.095Z,24.77
2016-12-23T04:18:42.815Z,24.8
2016-12-23T04:19:10.558Z,24.78
2016-12-23T04:19:38.397Z,24.78
2016-12-23T04:20:06.193Z,24.77
2016-12-23T04:20:33.981Z,24.8
2016-12-23T04:21:01.816Z,24.81
2016-12-23T04:21:29.581Z,24.84
2016-12-23T04:21:57.400Z,24.74
2016-12-23T04:22:25.276Z,24.77
2016-12-23T04:22:53.085Z,24.76
2016-12-23T04:23:20.919Z,24.84
2016-12-23T04:23:48.726Z,24.78
2016-12-23T04:24:16.483Z,24.77
2016-12-23T04:24:44.237Z,24.76
2016-12-23T04:25:12.054Z,24.88
2016-12-23T04:25:39.788Z,24.86
2016-12-23T04:26:07.593Z,24.89
2016-12-23T04:26:35.421Z,24.92
2016-12-23T04:27:03.259Z,24.89
2016-12-23T04:27:31.012Z,24.89
2016-12-23T04:27:58.806Z,24.89
2016-12-23T04:28:26.596Z,24.77
2016-12-23T04:28:54.356Z,24.76
2016-12-23T04:29:22.146Z,24.78
2016-12-23T04:29:49.945Z,24.8
2016-12-23T04:30:17.686Z,24.76
2016-12-23T04:30:45.479Z,24.77
2016-12-23T04:31:13.260Z,24.78
2016-12-23T04:31:41.093Z,24.76
2016-12-23T04:32:08.869Z,24.7
2016-12-23T04:32:36.657Z,24.8
2016-12-23T04:33:04.433Z,24.8
2016-12-23T04:33:32.220Z,24.81
2016-12-23T04:34:00.011Z,24.73
2016-12-23T04:34:27.795Z,24.73
2016-12-23T04:34:55.588Z,24.74
2016-12-23T04:35:23.407Z,24.61
2016-12-23T04:35:51.158Z,24.69
2016-12-23T04:36:18.937Z,24.74
2016-12-23T04:36:46.684Z,24.69
2016-12-23T04:37:14.481Z,24.77
2016-12-23T04:37:42.295Z,24.76
2016-12-23T04:38:10.112Z,24.73
2016-12-23T04:38:37.926Z,24.73
2016-12-23T04:39:05.690Z,24.65
2016-12-23T04:39:33.445Z,24.61
2016-12-23T04:40:01.257Z,24.6
2016-12-23T04:40:29.041Z,24.63
2016-12-23T04:40:56.832Z,24.61
2016-12-23T04:41:24.642Z,24.68
2016-12-23T04:41:52.431Z,24.57
2016-12-23T04:42:20.185Z,24.55
2016-12-23T04:42:47.953Z,24.55
2016-12-23T04:43:15.748Z,24.55
2016-12-23T04:43:43.533Z,24.65
2016-12-23T04:44:11.345Z,24.65
2016-12-23T04:44:39.139Z,24.55
2016-12-23T04:45:06.964Z,24.58
2016-12-23T04:45:34.711Z,24.51
2016-12-23T04:46:02.514Z,24.58
2016-12-23T04:46:30.410Z,24.6
2016-12-23T04:46:58.231Z,24.55
2016-12-23T04:47:26.052Z,24.58
2016-12-23T04:47:53.837Z,24.58
2016-12-23T04:48:21.691Z,24.65
2016-12-23T04:48:49.515Z,24.6
2016-12-23T04:49:17.257Z,24.63
2016-12-23T04:49:45.069Z,24.65
2016-12-23T04:50:12.857Z,24.7
2016-12-23T04:50:40.611Z,24.61
2016-12-23T04:51:08.384Z,24.57
2016-12-23T04:51:36.133Z,24.58
2016-12-23T04:52:03.914Z,24.63
2016-12-23T04:52:31.709Z,24.63
2016-12-23T04:52:59.505Z,24.58
2016-12-23T04:53:27.321Z,24.63
2016-12-23T04:53:55.117Z,24.61
2016-12-23T04:54:22.898Z,24.65
2016-12-23T04:54:50.646Z,24.68
2016-12-23T04:55:18.453Z,24.63
2016-12-23T04:55:46.229Z,24.6
2016-12-23T04:56:13.950Z,24.61
2016-12-23T04:56:41.722Z,24.6
2016-12-23T04:57:09.472Z,24.65
2016-12-23T04:57:37.223Z,24.65
2016-12-23T04:58:05.021Z,24.55
2016-12-23T04:58:32.822Z,24.58
2016-12-23T04:59:00.617Z,24.6
2016-12-23T04:59:28.390Z,24.54
2016-12-23T04:59:56.180Z,24.68
2016-12-23T05:00:24.049Z,24.58
2016-12-23T05:00:51.818Z,24.58
2016-12-23T05:01:19.614Z,24.65
2016-12-23T05:01:47.391Z,24.61
2016-12-23T05:02:15.115Z,24.61
2016-12-23T05:02:42.929Z,24.57
2016-12-23T05:03:10.722Z,24.63
2016-12-23T05:03:38.468Z,24.61
2016-12-23T05:04:06.238Z,24.63
2016-12-23T05:04:34.001Z,24.61
2016-12-23T05:05:01.786Z,24.57
2016-12-23T05:05:29.563Z,24.58
2016-12-23T05:05:57.323Z,24.54
2016-12-23T05:06:25.119Z,24.43
2016-12-23T05:06:52.891Z,24.45
2016-12-23T05:07:20.665Z,24.42
2016-12-23T05:07:48.414Z,24.38
2016-12-23T05:08:16.199Z,24.32
2016-12-23T05:08:44.158Z,24.32
2016-12-23T05:09:11.909Z,24.35
2016-12-23T05:09:39.751Z,24.33
2016-12-23T05:10:07.565Z,24.3
2016-12-23T05:10:35.425Z,24.39
2016-12-23T05:11:03.210Z,24.32
2016-12-23T05:11:30.999Z,24.39
2016-12-23T05:11:58.758Z,24.38
2016-12-23T05:12:26.499Z,24.3
2016-12-23T05:12:54.276Z,24.32
2016-12-23T05:13:22.155Z,24.36
2016-12-23T05:13:49.944Z,24.43
2016-12-23T05:14:17.763Z,24.36
2016-12-23T05:14:45.579Z,24.28
2016-12-23T05:15:13.379Z,24.28
2016-12-23T05:15:41.143Z,24.29
2016-12-23T05:16:08.927Z,24.32
2016-12-23T05:16:36.688Z,24.29
2016-12-23T05:17:04.493Z,24.35
2016-12-23T05:17:32.327Z,24.38
2016-12-23T05:18:00.141Z,24.32
2016-12-23T05:18:28.209Z,24.35
2016-12-23T05:18:56.004Z,24.32
2016-12-23T05:19:23.798Z,24.28
2016-12-23T05:19:51.553Z,24.38
2016-12-23T05:20:19.334Z,24.33
2016-12-23T05:20:47.082Z,24.3
2016-12-23T05:21:14.887Z,24.38
2016-12-23T05:21:42.634Z,24.4
2016-12-23T05:22:10.373Z,24.45
2016-12-23T05:22:38.130Z,24.38
2016-12-23T05:23:05.901Z,24.39
2016-12-23T05:23:33.665Z,24.38
2016-12-23T05:24:01.440Z,24.39
2016-12-23T05:24:29.202Z,24.32
2016-12-23T05:24:57.038Z,24.42
2016-12-23T05:25:24.798Z,24.45
2016-12-23T05:25:52.572Z,24.4
2016-12-23T05:26:20.318Z,24.43
2016-12-23T05:26:48.068Z,24.38
2016-12-23T05:27:15.803Z,24.43
2016-12-23T05:27:43.546Z,24.38
2016-12-23T05:28:11.287Z,24.38
2016-12-23T05:28:39.076Z,24.33
2016-12-23T05:29:06.840Z,24.28
2016-12-23T05:29:34.621Z,24.29
2016-12-23T05:30:02.411Z,24.23
2016-12-23T05:30:30.185Z,24.2
2016-12-23T05:30:57.963Z,24.17
2016-12-23T05:31:25.807Z,24.29
2016-12-23T05:31:53.605Z,24.29
2016-12-23T05:32:21.371Z,24.24
2016-12-23T05:32:49.149Z,24.33
2016-12-23T05:33:16.899Z,24.28
2016-12-23T05:33:44.708Z,24.32
2016-12-23T05:34:12.523Z,24.23
2016-12-23T05:34:40.348Z,24.32
2016-12-23T05:35:08.252Z,24.24
2016-12-23T05:35:35.985Z,24.2
2016-12-23T05:36:03.795Z,24.21
2016-12-23T05:36:31.608Z,24.17
2016-12-23T05:36:59.381Z,24.16
2016-12-23T05:37:27.186Z,24.16
2016-12-23T05:37:54.926Z,24.18
2016-12-23T05:38:22.728Z,24.14
2016-12-23T05:38:50.545Z,24.17
2016-12-23T05:39:18.412Z,24.08
2016-12-23T05:39:46.170Z,24.14
2016-12-23T05:40:13.924Z,24.14
2016-12-23T05:40:41.715Z,24.11
2016-12-23T05:41:09.483Z,24.18
2016-12-23T05:41:37.261Z,24.17
2016-12-23T05:42:05.018Z,24.24
2016-12-23T05:42:32.872Z,24.29
2016-12-23T05:43:00.655Z,24.32
2016-12-23T05:43:28.476Z,24.24
2016-12-23T05:43:56.293Z,24.24
2016-12-23T05:44:24.064Z,24.32
2016-12-23T05:44:51.824Z,24.3
2016-12-23T05:45:19.591Z,24.18
2016-12-23T05:45:47.387Z,24.35
2016-12-23T05:46:15.143Z,24.33
2016-12-23T05:46:42.924Z,24.32
2016-12-23T05:47:10.726Z,24.35
2016-12-23T05:47:38.528Z,24.23
2016-12-23T05:48:06.313Z,24.3
2016-12-23T05:48:34.050Z,24.29
2016-12-23T05:49:01.849Z,24.32
2016-12-23T05:49:29.631Z,24.3
2016-12-23T05:49:57.457Z,24.32
2016-12-23T05:50:25.203Z,24.2
2016-12-23T05:50:52.989Z,24.26
2016-12-23T05:51:20.769Z,24.35
2016-12-23T05:51:48.568Z,24.38
2016-12-23T05:52:16.382Z,24.38
2016-12-23T05:52:44.278Z,24.33
2016-12-23T05:53:12.095Z,24.26
2016-12-23T05:53:39.878Z,24.29
2016-12-23T05:54:07.645Z,24.33
2016-12-23T05:54:35.497Z,24.24
2016-12-23T05:55:03.244Z,24.2
2016-12-23T05:55:31.031Z,24.24
2016-12-23T05:55:58.829Z,24.23
2016-12-23T05:56:26.610Z,24.29
2016-12-23T05:56:54.409Z,24.18
2016-12-23T05:57:22.305Z,24.3
2016-12-23T05:57:50.151Z,24.3
2016-12-23T05:58:17.926Z,24.3
2016-12-23T05:58:45.758Z,24.2
2016-12-23T05:59:13.568Z,24.32
2016-12-23T05:59:41.370Z,24.29